Time;durP1;ratioP1;P1;durP2;ratioP2;P2;SDS_P1;SDS_P2;PMS_P1;PMS_P2;Temp;Humidity;BMP_temperature;BMP_pressure;BME280_temperature;BME280_humidity;BME280_pressure;Samples;Min_cycle;Max_cycle;Signal;HPM_P1;HPM_P2
2022/05/09 00:01:00;;;;;;;0.10;0.10;;;14.80;99.90;;;;;;5032156;28;20132;-66
2022/05/09 00:03:26;;;;;;;0.55;0.55;;;14.70;99.90;;;;;;5031816;28;20036;-66
2022/05/09 00:05:51;;;;;;;2.95;2.30;;;14.70;99.90;;;;;;5032950;28;20053;-66
2022/05/09 00:08:17;;;;;;;0.90;0.75;;;14.80;99.90;;;;;;5032718;28;20029;-66
2022/05/09 00:10:43;;;;;;;0.40;0.40;;;14.70;99.90;;;;;;5032851;28;20034;-66
2022/05/09 00:13:08;;;;;;;0.30;0.30;;;14.70;99.90;;;;;;5031916;28;20109;-66
2022/05/09 00:15:34;;;;;;;0.10;0.10;;;14.70;99.90;;;;;;5033028;28;20830;-66
2022/05/09 00:18:00;;;;;;;1.85;1.58;;;14.70;99.90;;;;;;5031527;28;20033;-67
2022/05/09 00:20:25;;;;;;;2.63;1.08;;;14.70;99.90;;;;;;5032261;28;20113;-66
2022/05/09 00:22:54;;;;;;;0.47;0.47;;;14.60;99.90;;;;;;5031599;28;20026;-66
2022/05/09 00:25:25;;;;;;;0.03;0.03;;;14.60;99.90;;;;;;5031763;28;20044;-66
2022/05/09 00:27:51;;;;;;;0.40;0.40;;;14.60;99.90;;;;;;5031626;28;20033;-66
2022/05/09 00:30:18;;;;;;;0.73;0.73;;;14.50;99.90;;;;;;5032553;28;20112;-67
2022/05/09 00:32:44;;;;;;;0.90;0.57;;;14.50;99.90;;;;;;5031335;28;20164;-66
2022/05/09 00:35:11;;;;;;;3.10;1.70;;;14.40;99.90;;;;;;5031246;28;20461;-66
2022/05/09 00:37:37;;;;;;;0.35;0.30;;;14.30;99.90;;;;;;5031554;28;20044;-66
2022/05/09 00:40:08;;;;;;;0.75;0.75;;;14.30;99.90;;;;;;5032148;28;20029;-66
2022/05/09 00:42:35;;;;;;;0.13;0.13;;;14.30;99.90;;;;;;5031299;28;20135;-66
2022/05/09 00:45:03;;;;;;;5.47;0.80;;;14.30;99.90;;;;;;5032082;28;20026;-66
2022/05/09 00:47:29;;;;;;;0.63;0.63;;;14.10;99.90;;;;;;5031054;28;20026;-66
2022/05/09 00:50:00;;;;;;;0.35;0.35;;;14.10;99.90;;;;;;5030948;28;20029;-66
2022/05/09 00:52:52;;;;;;;1.55;0.75;;;14.10;99.90;;;;;;5031073;28;20022;-66
2022/05/09 00:55:42;;;;;;;0.47;0.47;;;14.10;99.90;;;;;;5030455;28;20034;-66
2022/05/09 00:58:36;;;;;;;0.55;0.55;;;14.00;99.90;;;;;;5031303;28;20045;-66
2022/05/09 01:01:03;;;;;;;0.25;0.25;;;14.00;99.90;;;;;;5032270;28;20029;-66
2022/05/09 01:03:43;;;;;;;1.63;1.52;;;14.00;99.90;;;;;;5030573;28;20091;-66
2022/05/09 01:06:10;;;;;;;0.10;0.10;;;14.00;99.90;;;;;;5024410;28;20033;-66
2022/05/09 01:08:36;;;;;;;0.43;0.43;;;14.00;99.90;;;;;;5023785;28;20059;-66
2022/05/09 01:11:09;;;;;;;0.00;0.00;;;13.90;99.90;;;;;;5019142;28;20029;-66
2022/05/09 01:13:42;;;;;;;0.20;0.20;;;13.90;99.90;;;;;;5014665;28;20099;-66
2022/05/09 01:16:09;;;;;;;1.15;1.00;;;13.90;99.90;;;;;;5017888;28;20544;-66
2022/05/09 01:18:36;;;;;;;0.63;0.55;;;13.90;99.90;;;;;;5010212;28;20124;-66
2022/05/09 01:21:27;;;;;;;1.75;1.38;;;13.80;99.90;;;;;;5010718;28;20018;-66
2022/05/09 01:23:53;;;;;;;0.00;0.00;;;13.80;99.90;;;;;;5019011;28;20036;-66
2022/05/09 01:26:19;;;;;;;1.83;0.82;;;13.80;99.90;;;;;;5030436;28;20412;-66
2022/05/09 01:28:45;;;;;;;1.00;0.65;;;13.80;99.90;;;;;;5031779;28;20421;-66
2022/05/09 01:31:16;;;;;;;0.10;0.10;;;13.80;99.90;;;;;;5031410;28;20063;-66
2022/05/09 01:33:47;;;;;;;1.42;0.82;;;13.80;99.90;;;;;;5029813;28;20558;-66
2022/05/09 01:36:21;;;;;;;0.20;0.20;;;13.80;99.90;;;;;;5030130;28;20065;-66
2022/05/09 01:39:04;;;;;;;0.70;0.63;;;13.80;99.90;;;;;;5030067;28;20033;-66
2022/05/09 01:41:44;;;;;;;1.15;1.00;;;13.70;99.90;;;;;;5018075;28;20038;-66
2022/05/09 01:44:13;;;;;;;0.30;0.30;;;13.70;99.90;;;;;;5010281;28;20520;-66
2022/05/09 01:49:30;;;;;;;0.10;0.10;;;13.60;99.90;;;;;;5010978;28;20397;-66
2022/05/09 01:52:11;;;;;;;0.35;0.35;;;13.60;99.90;;;;;;5009961;28;20030;-66
2022/05/09 01:54:39;;;;;;;0.38;0.38;;;13.50;99.90;;;;;;5010152;28;20033;-67
2022/05/09 01:57:05;;;;;;;0.40;0.40;;;13.50;99.90;;;;;;5011154;28;20133;-66
2022/05/09 01:59:31;;;;;;;0.30;0.30;;;13.50;99.90;;;;;;5009711;28;20101;-66
2022/05/09 02:02:03;;;;;;;0.55;0.55;;;13.50;99.90;;;;;;5011306;28;20022;-67
2022/05/09 02:04:29;;;;;;;0.73;0.73;;;13.40;99.90;;;;;;5009878;28;20022;-66
2022/05/09 02:06:57;;;;;;;8.15;1.92;;;13.40;99.90;;;;;;5010947;28;20022;-66
2022/05/09 02:09:23;;;;;;;0.10;0.10;;;13.30;99.90;;;;;;5009797;28;20053;-66
2022/05/09 02:11:48;;;;;;;0.17;0.17;;;13.20;99.90;;;;;;5009968;28;20038;-67
2022/05/09 02:14:14;;;;;;;0.20;0.20;;;13.10;99.90;;;;;;5009991;28;20037;-66
2022/05/09 02:16:40;;;;;;;0.57;0.55;;;13.10;99.90;;;;;;5030599;28;20758;-66
2022/05/09 02:19:06;;;;;;;0.30;0.30;;;13.10;99.90;;;;;;5030145;28;20160;-66
2022/05/09 02:21:33;;;;;;;0.63;0.60;;;13.10;99.90;;;;;;5030543;28;20053;-66
2022/05/09 02:24:00;;;;;;;1.45;1.08;;;13.00;99.90;;;;;;5029410;28;20095;-66
2022/05/09 02:26:26;;;;;;;1.70;1.60;;;13.00;99.90;;;;;;5029705;28;20038;-66
2022/05/09 02:28:52;;;;;;;0.40;0.40;;;13.00;99.90;;;;;;5030276;28;20403;-66
2022/05/09 02:31:20;;;;;;;0.20;0.20;;;13.00;99.90;;;;;;5030412;28;20037;-66
2022/05/09 02:33:46;;;;;;;0.10;0.10;;;12.90;99.90;;;;;;5030204;28;20499;-66
2022/05/09 02:36:12;;;;;;;0.28;0.28;;;12.90;99.90;;;;;;5029164;28;20041;-66
2022/05/09 02:38:38;;;;;;;0.68;0.25;;;12.90;99.90;;;;;;5029035;28;20040;-66
2022/05/09 02:41:05;;;;;;;0.88;0.88;;;12.90;99.90;;;;;;5029305;28;20065;-66
2022/05/09 02:43:33;;;;;;;0.10;0.10;;;12.90;99.90;;;;;;5030274;28;20045;-66
2022/05/09 02:46:03;;;;;;;0.10;0.10;;;12.90;99.90;;;;;;5029578;28;20037;-66
2022/05/09 02:48:37;;;;;;;0.03;0.03;;;12.90;99.90;;;;;;5030436;28;20112;-66
2022/05/09 02:51:05;;;;;;;0.00;0.00;;;12.80;99.90;;;;;;5030325;28;20040;-66
2022/05/09 02:53:32;;;;;;;0.88;0.80;;;12.70;99.90;;;;;;5029174;28;20068;-66
2022/05/09 02:55:57;;;;;;;1.60;1.50;;;12.70;99.90;;;;;;5030383;28;20108;-66
2022/05/09 02:58:23;;;;;;;3.70;1.02;;;12.70;99.90;;;;;;5029906;28;20555;-66
2022/05/09 03:00:50;;;;;;;0.15;0.15;;;12.60;99.90;;;;;;5028627;28;20104;-66
2022/05/09 03:06:00;;;;;;;0.38;0.38;;;12.60;99.90;;;;;;5030437;28;20540;-66
2022/05/09 03:08:26;;;;;;;0.15;0.15;;;12.60;99.90;;;;;;5030085;28;20112;-66
2022/05/09 03:10:52;;;;;;;0.35;0.35;;;12.60;99.90;;;;;;5029027;28;20037;-66
2022/05/09 03:13:18;;;;;;;0.25;0.25;;;12.70;99.90;;;;;;5030209;28;20025;-66
2022/05/09 03:15:47;;;;;;;1.27;1.17;;;12.60;99.90;;;;;;5016003;28;20034;-66
2022/05/09 03:18:16;;;;;;;0.43;0.15;;;12.60;99.90;;;;;;5008957;28;20100;-66
2022/05/09 03:20:42;;;;;;;1.67;0.68;;;12.60;99.90;;;;;;5013941;28;20035;-66
2022/05/09 03:23:09;;;;;;;0.20;0.20;;;12.60;99.90;;;;;;5012652;28;20041;-66
2022/05/09 03:25:37;;;;;;;0.93;0.93;;;12.50;99.90;;;;;;5012839;28;20026;-66
2022/05/09 03:28:06;;;;;;;1.33;0.82;;;12.50;99.90;;;;;;5012400;28;20038;-66
2022/05/09 03:30:32;;;;;;;0.25;0.25;;;12.50;99.90;;;;;;5012802;28;20038;-67
2022/05/09 03:32:58;;;;;;;0.08;0.08;;;12.60;99.90;;;;;;5012659;28;20030;-67
2022/05/09 03:35:24;;;;;;;0.30;0.30;;;12.60;99.90;;;;;;5013636;28;20029;-67
2022/05/09 03:37:50;;;;;;;0.38;0.38;;;12.60;99.90;;;;;;4996308;28;20080;-66
2022/05/09 03:40:18;;;;;;;0.45;0.45;;;12.60;99.90;;;;;;5013586;28;20029;-67
2022/05/09 03:42:44;;;;;;;0.25;0.25;;;12.60;99.90;;;;;;5013827;28;20029;-67
2022/05/09 03:45:11;;;;;;;6.10;1.83;;;12.70;99.90;;;;;;5013511;28;20022;-67
2022/05/09 03:47:36;;;;;;;0.38;0.38;;;12.60;99.90;;;;;;5013459;28;20440;-66
2022/05/09 03:50:03;;;;;;;0.00;0.00;;;12.70;99.90;;;;;;5011831;28;20030;-67
2022/05/09 03:52:29;;;;;;;0.35;0.35;;;12.60;99.90;;;;;;5012638;28;20087;-67
2022/05/09 03:54:57;;;;;;;0.10;0.10;;;12.60;99.90;;;;;;5013152;28;20034;-67
2022/05/09 03:57:23;;;;;;;0.00;0.00;;;12.50;99.90;;;;;;5013333;28;20087;-67
2022/05/09 03:59:50;;;;;;;0.52;0.52;;;12.60;99.90;;;;;;5011893;28;20374;-68
2022/05/09 04:02:16;;;;;;;0.40;0.35;;;12.50;99.90;;;;;;5011812;28;20033;-67
2022/05/09 04:04:42;;;;;;;0.30;0.30;;;12.50;99.90;;;;;;5013663;28;20022;-67
2022/05/09 04:07:08;;;;;;;0.10;0.10;;;12.70;99.90;;;;;;5024445;28;20078;-67
2022/05/09 04:09:33;;;;;;;0.28;0.28;;;12.80;99.90;;;;;;5020593;28;20063;-67
2022/05/09 04:11:59;;;;;;;1.00;0.93;;;12.80;99.90;;;;;;5026521;28;20033;-68
2022/05/09 04:17:10;;;;;;;2.30;2.10;;;12.80;99.90;;;;;;5012697;28;20397;-67
2022/05/09 04:19:41;;;;;;;0.95;0.95;;;12.70;99.90;;;;;;5011121;28;20084;-68
2022/05/09 04:22:07;;;;;;;0.55;0.30;;;12.70;99.90;;;;;;5012837;28;20022;-68
2022/05/09 04:24:35;;;;;;;0.10;0.10;;;12.70;99.90;;;;;;5011156;28;20517;-68
2022/05/09 04:27:01;;;;;;;0.88;0.68;;;12.70;99.90;;;;;;5011546;28;20464;-68
2022/05/09 04:29:28;;;;;;;3.65;1.48;;;12.70;99.90;;;;;;5019527;28;20041;-68
2022/05/09 04:31:54;;;;;;;0.35;0.35;;;12.70;99.90;;;;;;5029036;28;20025;-68
2022/05/09 04:34:20;;;;;;;0.10;0.10;;;12.70;99.90;;;;;;5020117;28;20099;-68
2022/05/09 04:36:45;;;;;;;1.15;0.60;;;12.70;99.90;;;;;;5018746;28;20029;-67
2022/05/09 04:39:11;;;;;;;0.10;0.10;;;12.80;99.90;;;;;;5016172;28;20053;-69
2022/05/09 04:41:37;;;;;;;0.20;0.20;;;12.80;99.90;;;;;;5033063;28;20055;-68
2022/05/09 04:44:05;;;;;;;0.20;0.20;;;12.70;99.90;;;;;;5042011;28;20455;-68
2022/05/09 04:46:33;;;;;;;0.10;0.10;;;12.70;99.90;;;;;;5050801;28;20021;-68
2022/05/09 04:48:59;;;;;;;0.10;0.10;;;12.70;99.90;;;;;;5050351;28;20039;-68
2022/05/09 04:51:24;;;;;;;0.30;0.30;;;12.70;99.90;;;;;;5050438;28;20025;-68
2022/05/09 04:53:50;;;;;;;0.30;0.30;;;12.70;99.90;;;;;;5023942;28;20052;-69
2022/05/09 04:56:17;;;;;;;1.15;1.15;;;12.80;99.90;;;;;;5030491;28;20452;-68
2022/05/09 04:58:43;;;;;;;0.30;0.30;;;12.80;99.90;;;;;;5030291;28;20033;-69
2022/05/09 05:01:10;;;;;;;0.30;0.30;;;12.80;99.90;;;;;;5031450;28;20374;-69
2022/05/09 05:03:36;;;;;;;0.00;0.00;;;12.90;99.90;;;;;;5030219;28;20025;-68
2022/05/09 05:06:04;;;;;;;0.32;0.28;;;12.90;99.90;;;;;;5012673;28;20418;-69
2022/05/09 05:08:33;;;;;;;0.10;0.10;;;12.90;99.90;;;;;;5041557;28;20029;-69
2022/05/09 05:11:00;;;;;;;0.15;0.15;;;12.90;99.90;;;;;;5035755;28;20040;-68
2022/05/09 05:13:27;;;;;;;1.10;1.00;;;13.00;99.90;;;;;;5030464;28;20055;-69
2022/05/09 05:15:55;;;;;;;0.10;0.10;;;13.10;99.90;;;;;;5044545;28;20032;-67
2022/05/09 05:18:30;;;;;;;0.20;0.20;;;13.10;99.90;;;;;;5050776;28;20029;-68
2022/05/09 05:20:56;;;;;;;0.10;0.10;;;13.10;99.90;;;;;;5029540;28;20036;-68
2022/05/09 05:23:22;;;;;;;6.60;1.38;;;13.20;99.90;;;;;;5030059;28;20041;-75
2022/05/09 05:25:48;;;;;;;0.43;0.43;;;13.30;99.90;;;;;;5030235;28;20029;-75
2022/05/09 05:28:16;;;;;;;0.43;0.43;;;13.30;99.90;;;;;;5031321;28;20613;-75
2022/05/09 05:30:42;;;;;;;0.98;0.93;;;13.40;99.90;;;;;;5029533;28;20076;-73
2022/05/09 05:33:08;;;;;;;0.20;0.20;;;13.40;99.90;;;;;;5030947;28;20037;-75
2022/05/09 05:35:34;;;;;;;0.05;0.05;;;13.50;99.90;;;;;;5045440;28;20037;-76
2022/05/09 05:38:00;;;;;;;0.43;0.43;;;13.50;99.90;;;;;;5051043;28;20033;-76
2022/05/09 05:40:26;;;;;;;0.30;0.30;;;13.60;99.90;;;;;;5042385;28;20072;-76
2022/05/09 05:42:52;;;;;;;0.43;0.43;;;13.70;99.90;;;;;;5029187;28;20405;-73
2022/05/09 05:45:23;;;;;;;0.30;0.30;;;13.60;99.90;;;;;;5030730;28;20053;-75
2022/05/09 05:47:50;;;;;;;;;;;13.80;99.90;;;;;;5039197;28;20037;-77
2022/05/09 05:50:19;;;;;;;0.20;0.20;;;13.90;99.90;;;;;;5045202;28;19923;-77
2022/05/09 05:52:44;;;;;;;0.30;0.30;;;13.90;99.90;;;;;;5026474;28;20086;-75
2022/05/09 05:55:11;;;;;;;2.78;0.93;;;14.00;99.90;;;;;;5049642;28;20033;-75
2022/05/09 05:57:40;;;;;;;0.22;0.22;;;14.10;99.90;;;;;;5041981;28;20369;-73
2022/05/09 06:00:22;;;;;;;0.75;0.43;;;14.20;99.90;;;;;;5048895;28;20020;-67
2022/05/09 06:02:49;;;;;;;0.55;0.28;;;14.30;99.90;;;;;;5041700;28;20044;-69
2022/05/09 06:05:17;;;;;;;2.55;1.75;;;14.50;99.90;;;;;;5046737;28;20063;-68
2022/05/09 06:07:43;;;;;;;0.20;0.20;;;14.60;99.90;;;;;;5049316;28;20520;-69
2022/05/09 06:10:11;;;;;;;0.32;0.32;;;14.70;99.90;;;;;;5049031;28;20028;-69
2022/05/09 06:12:37;;;;;;;0.10;0.10;;;14.80;99.90;;;;;;5032752;28;20029;-69
2022/05/09 06:17:48;;;;;;;0.60;0.60;;;15.00;99.90;;;;;;5049263;28;20033;-69
2022/05/09 06:20:14;;;;;;;0.22;0.22;;;14.90;99.90;;;;;;5047784;28;20043;-69
2022/05/09 06:22:40;;;;;;;0.70;0.70;;;15.10;99.90;;;;;;5034271;28;20036;-69
2022/05/09 06:25:10;;;;;;;4.10;0.85;;;15.30;99.90;;;;;;5029681;28;20072;-69
2022/05/09 06:27:36;;;;;;;1.63;1.52;;;15.30;99.90;;;;;;5030002;28;20022;-69
2022/05/09 06:30:06;;;;;;;0.40;0.40;;;15.40;99.90;;;;;;5030107;28;20032;-69
2022/05/09 06:32:32;;;;;;;8.55;1.23;;;15.60;99.90;;;;;;5029295;28;20397;-69
2022/05/09 06:35:01;;;;;;;0.10;0.10;;;15.70;99.90;;;;;;5034517;28;20523;-69
2022/05/09 06:37:30;;;;;;;0.55;0.17;;;15.90;99.90;;;;;;5048853;28;20052;-68
2022/05/09 06:39:56;;;;;;;0.22;0.22;;;16.10;99.90;;;;;;5048761;28;20025;-67
2022/05/09 06:42:21;;;;;;;0.57;0.57;;;16.10;99.90;;;;;;5050323;28;20029;-67
2022/05/09 06:44:47;;;;;;;0.00;0.00;;;16.20;99.90;;;;;;5048639;28;20086;-67
2022/05/09 06:47:14;;;;;;;1.23;1.13;;;16.30;99.90;;;;;;5050192;28;20021;-67
2022/05/09 06:49:40;;;;;;;0.20;0.20;;;16.40;99.90;;;;;;5047958;28;20116;-67
2022/05/09 06:52:06;;;;;;;0.20;0.20;;;16.40;99.90;;;;;;5032385;28;20157;-66
2022/05/09 06:54:32;;;;;;;10.88;0.70;;;16.50;99.90;;;;;;5052285;28;20032;-67
2022/05/09 06:57:00;;;;;;;0.57;0.43;;;16.60;99.90;;;;;;5054205;28;20033;-66
2022/05/09 06:59:26;;;;;;;0.85;0.75;;;16.60;99.90;;;;;;5052517;28;20029;-66
2022/05/09 07:01:52;;;;;;;2.45;1.35;;;16.60;99.90;;;;;;5036156;28;20120;-67
2022/05/09 07:04:18;;;;;;;0.20;0.20;;;16.80;99.90;;;;;;5052206;28;20119;-66
2022/05/09 07:06:44;;;;;;;0.45;0.45;;;16.70;99.90;;;;;;5053473;28;20500;-67
2022/05/09 07:09:10;;;;;;;0.35;0.22;;;16.90;99.90;;;;;;5052330;28;20048;-67
2022/05/09 07:11:39;;;;;;;0.65;0.65;;;17.00;99.90;;;;;;5054050;28;20029;-67
2022/05/09 07:14:06;;;;;;;19.80;2.20;;;17.10;99.90;;;;;;5052727;28;20025;-67
2022/05/09 07:16:31;;;;;;;1.20;0.63;;;17.30;99.90;;;;;;5052260;28;20024;-67
2022/05/09 07:18:58;;;;;;;0.95;0.30;;;17.30;99.90;;;;;;5053292;28;20040;-67
2022/05/09 07:21:26;;;;;;;0.38;0.38;;;17.30;99.90;;;;;;5053322;28;20048;-67
2022/05/09 07:23:52;;;;;;;6.50;2.85;;;17.50;99.90;;;;;;5052284;28;20090;-67
2022/05/09 07:26:17;;;;;;;2.70;2.20;;;17.30;99.90;;;;;;5053601;28;20048;-67
2022/05/09 07:28:43;;;;;;;0.52;0.52;;;17.50;99.90;;;;;;5052220;28;20040;-67
2022/05/09 07:31:10;;;;;;;0.60;0.60;;;17.50;99.90;;;;;;5053247;28;20431;-67
2022/05/09 07:33:36;;;;;;;1.70;0.73;;;17.50;99.90;;;;;;5051724;28;20025;-67
2022/05/09 07:36:05;;;;;;;0.20;0.20;;;17.50;99.90;;;;;;5052120;28;20105;-67
2022/05/09 07:38:31;;;;;;;1.13;0.73;;;17.60;99.90;;;;;;5053141;28;20493;-67
2022/05/09 07:40:58;;;;;;;1.35;0.73;;;17.70;99.90;;;;;;5052081;28;20067;-67
2022/05/09 07:43:28;;;;;;;0.28;0.28;;;17.70;99.90;;;;;;5053017;28;20732;-67
2022/05/09 07:45:56;;;;;;;0.50;0.50;;;17.80;99.90;;;;;;5052237;28;20035;-67
2022/05/09 07:48:24;;;;;;;4.85;1.33;;;18.00;99.90;;;;;;5051883;28;20510;-68
2022/05/09 07:50:52;;;;;;;0.20;0.20;;;18.10;99.90;;;;;;5034921;28;20099;-68
2022/05/09 07:53:30;;;;;;;0.65;0.43;;;18.10;99.90;;;;;;5052052;28;20029;-68
2022/05/09 07:55:56;;;;;;;0.30;0.30;;;18.30;99.90;;;;;;5052070;28;20036;-69
2022/05/09 07:58:25;;;;;;;1.27;0.95;;;18.40;99.90;;;;;;5052616;28;20032;-68
2022/05/09 08:00:51;;;;;;;0.98;0.52;;;18.20;99.90;;;;;;5035449;28;20033;-68
2022/05/09 08:03:22;;;;;;;0.10;0.10;;;18.30;99.90;;;;;;5035249;28;20021;-68
2022/05/09 08:05:50;;;;;;;0.28;0.28;;;18.50;99.90;;;;;;5031440;28;20032;-66
2022/05/09 08:08:17;;;;;;;0.30;0.30;;;18.50;99.90;;;;;;5032735;28;20029;-67
2022/05/09 08:10:44;;;;;;;0.20;0.20;;;18.50;99.90;;;;;;5031354;28;20036;-67
2022/05/09 08:13:13;;;;;;;0.52;0.47;;;18.70;99.90;;;;;;5031460;28;20021;-67
2022/05/09 08:15:40;;;;;;;1.13;1.00;;;18.80;99.90;;;;;;5031650;28;20037;-67
2022/05/09 08:18:06;;;;;;;0.52;0.52;;;18.90;99.90;;;;;;5032543;28;20040;-67
2022/05/09 08:20:35;;;;;;;0.15;0.15;;;19.10;99.90;;;;;;5047677;28;20393;-67
2022/05/09 08:23:10;;;;;;;0.10;0.10;;;19.10;99.90;;;;;;5031412;28;20021;-68
2022/05/09 08:25:39;;;;;;;0.10;0.10;;;19.30;99.90;;;;;;5046212;28;20112;-68
2022/05/09 08:28:07;;;;;;;3.33;1.17;;;19.50;99.90;;;;;;5046059;28;20033;-67
2022/05/09 08:30:34;;;;;;;0.10;0.10;;;18.90;99.90;;;;;;5014963;28;20564;-67
2022/05/09 08:33:06;;;;;;;0.25;0.25;;;19.10;99.90;;;;;;5030890;28;20030;-67
2022/05/09 08:35:33;;;;;;;0.08;0.08;;;19.30;99.90;;;;;;5024866;28;20051;-67
2022/05/09 08:37:59;;;;;;;0.35;0.30;;;19.50;99.90;;;;;;5050971;28;20458;-67
2022/05/09 08:40:53;;;;;;;0.00;0.00;;;19.70;99.90;;;;;;5051929;28;20034;-66
2022/05/09 08:44:08;;;;;;;1.30;1.20;;;19.80;99.90;;;;;;5051254;28;20024;-67
2022/05/09 08:46:59;;;;;;;0.38;0.38;;;19.90;99.90;;;;;;5051098;28;20072;-67
2022/05/09 08:49:45;;;;;;;0.25;0.22;;;19.60;99.90;;;;;;5050790;28;20021;-67
2022/05/09 08:52:21;;;;;;;0.00;0.00;;;19.80;99.90;;;;;;5035009;28;20385;-67
2022/05/09 08:54:48;;;;;;;4.18;1.55;;;20.20;99.90;;;;;;5051688;28;20544;-67
2022/05/09 08:57:26;;;;;;;0.52;0.43;;;20.30;99.90;;;;;;5051381;28;20029;-67
2022/05/09 09:00:17;;;;;;;0.08;0.08;;;20.20;99.90;;;;;;5050435;28;20111;-68
2022/05/09 09:02:54;;;;;;;0.25;0.25;;;20.20;99.90;;;;;;5051224;28;20040;-68
2022/05/09 09:05:23;;;;;;;0.10;0.10;;;20.20;99.90;;;;;;5050079;28;20021;-68
2022/05/09 09:08:00;;;;;;;0.30;0.30;;;20.40;99.90;;;;;;5050208;28;20569;-68
2022/05/09 09:11:13;;;;;;;0.10;0.10;;;20.40;99.90;;;;;;5051597;28;20040;-67
2022/05/09 09:13:53;;;;;;;0.65;0.65;;;20.40;99.90;;;;;;5050436;28;20032;-67
2022/05/09 09:16:41;;;;;;;0.60;0.50;;;20.70;99.90;;;;;;5049649;28;20056;-68
2022/05/09 09:19:40;;;;;;;1.10;1.00;;;20.90;99.90;;;;;;5050866;28;20036;-67
2022/05/09 09:22:59;;;;;;;0.38;0.38;;;20.90;99.90;;;;;;5051259;28;20028;-67
2022/05/09 09:26:03;;;;;;;0.35;0.35;;;20.90;99.90;;;;;;5051172;28;20032;-68
2022/05/09 09:28:49;;;;;;;0.30;0.30;;;20.80;99.90;;;;;;5034945;28;20380;-68
2022/05/09 09:31:30;;;;;;;0.28;0.28;;;20.90;99.90;;;;;;5049751;28;20057;-67
2022/05/09 09:34:19;;;;;;;1.02;0.35;;;21.10;99.90;;;;;;5051267;28;20025;-67
2022/05/09 09:36:52;;;;;;;0.30;0.20;;;21.30;99.90;;;;;;5050777;28;20112;-67
2022/05/09 09:39:20;;;;;;;0.82;0.40;;;21.40;99.90;;;;;;5049660;28;20040;-67
2022/05/09 09:41:48;;;;;;;0.70;0.70;;;21.70;99.90;;;;;;5049517;28;20044;-68
2022/05/09 09:44:24;;;;;;;0.40;0.38;;;21.70;99.10;;;;;;5049717;28;20025;-67
2022/05/09 09:47:25;;;;;;;0.57;0.40;;;21.80;99.00;;;;;;5050559;28;20037;-67
2022/05/09 09:50:19;;;;;;;0.68;0.47;;;22.10;99.10;;;;;;5048393;28;20124;-68
2022/05/09 09:52:58;;;;;;;0.82;0.63;;;22.10;97.30;;;;;;5050314;28;20112;-66
2022/05/09 09:55:34;;;;;;;0.15;0.15;;;22.10;97.40;;;;;;5050805;28;20117;-67
2022/05/09 09:58:28;;;;;;;0.05;0.05;;;22.20;97.40;;;;;;5050698;28;20028;-66
2022/05/09 10:01:35;;;;;;;0.10;0.10;;;22.30;97.80;;;;;;5034258;28;20029;-66
2022/05/09 10:04:28;;;;;;;2.25;1.05;;;22.30;97.40;;;;;;5038078;28;20041;-66
2022/05/09 10:07:10;;;;;;;2.90;0.57;;;22.60;97.70;;;;;;5030141;28;20049;-64
2022/05/09 10:09:59;;;;;;;0.08;0.08;;;22.30;98.10;;;;;;5044969;28;20028;-66
2022/05/09 10:12:31;;;;;;;0.05;0.05;;;22.70;97.90;;;;;;5030349;28;20576;-66
2022/05/09 10:14:58;;;;;;;0.00;0.00;;;22.70;97.90;;;;;;5045482;28;20531;-66
2022/05/09 10:17:32;;;;;;;0.25;0.20;;;23.10;97.30;;;;;;5045779;28;20025;-66
2022/05/09 10:20:20;;;;;;;0.77;0.50;;;23.40;96.40;;;;;;5028367;28;20025;-67
2022/05/09 10:25:33;;;;;;;0.05;0.05;;;23.90;94.90;;;;;;5043477;28;20056;-66
2022/05/09 10:28:19;;;;;;;1.15;1.05;;;23.90;94.30;;;;;;5029792;28;20025;-66
2022/05/09 10:30:49;;;;;;;0.20;0.20;;;23.50;94.30;;;;;;5031244;28;20112;-67
2022/05/09 10:33:50;;;;;;;;;;;23.80;94.90;;;;;;5029786;28;20029;-66
2022/05/09 10:36:43;;;;;;;1.38;0.57;;;24.10;94.80;;;;;;5039640;28;19908;-66
2022/05/09 10:39:28;;;;;;;0.10;0.10;;;24.00;94.90;;;;;;5048595;28;20412;-66
2022/05/09 10:42:03;;;;;;;0.63;0.50;;;23.80;94.40;;;;;;5048882;28;20032;-66
2022/05/09 10:45:01;;;;;;;0.25;0.25;;;23.70;96.10;;;;;;5048854;28;20607;-67
2022/05/09 10:47:54;;;;;;;0.20;0.20;;;24.20;93.80;;;;;;5048514;28;20056;-66
2022/05/09 10:50:49;;;;;;;1.88;1.20;;;23.90;94.60;;;;;;5049267;28;20389;-67
2022/05/09 10:53:45;;;;;;;0.82;0.68;;;23.70;94.30;;;;;;5048825;28;20111;-66
2022/05/09 10:56:35;;;;;;;0.10;0.10;;;23.90;94.40;;;;;;5049982;28;20029;-67
2022/05/09 10:59:09;;;;;;;0.55;0.40;;;24.60;93.80;;;;;;5049245;28;20041;-66
2022/05/09 11:01:42;;;;;;;1.08;0.38;;;24.70;92.90;;;;;;5049945;28;20025;-66
2022/05/09 11:04:09;;;;;;;0.50;0.50;;;25.00;92.90;;;;;;5048205;28;20029;-66
2022/05/09 11:07:06;;;;;;;1.50;1.23;;;24.60;92.50;;;;;;5048100;28;20546;-67
2022/05/09 11:09:58;;;;;;;0.55;0.52;;;24.60;93.10;;;;;;5049351;28;20498;-66
2022/05/09 11:12:45;;;;;;;0.00;0.00;;;24.80;92.60;;;;;;5049916;28;20119;-66
2022/05/09 11:15:35;;;;;;;1.17;0.75;;;25.20;92.00;;;;;;5049819;28;20037;-67
2022/05/09 11:18:43;;;;;;;0.57;0.43;;;24.90;92.20;;;;;;5050142;28;20037;-66
2022/05/09 11:21:31;;;;;;;1.15;0.85;;;24.70;91.70;;;;;;5048698;28;20025;-66
2022/05/09 11:24:42;;;;;;;0.50;0.30;;;24.70;91.60;;;;;;5033091;28;20044;-66
2022/05/09 11:27:57;;;;;;;0.10;0.10;;;25.20;90.00;;;;;;5049235;28;20662;-66
2022/05/09 11:30:39;;;;;;;0.63;0.63;;;25.30;90.60;;;;;;5047975;28;20439;-66
2022/05/09 11:33:28;;;;;;;0.10;0.10;;;24.90;91.80;;;;;;5048132;28;20029;-66
2022/05/09 11:36:04;;;;;;;0.00;0.00;;;24.70;91.10;;;;;;5049200;28;20055;-66
2022/05/09 11:38:57;;;;;;;0.40;0.32;;;25.30;89.10;;;;;;5048088;28;20045;-66
2022/05/09 11:43:27;;;;;;;1.17;0.77;;;25.60;90.20;;;;;;5051855;28;20029;-66
2022/05/09 11:45:01;;;;;;;0.35;0.28;;;26.20;89.10;;;;;;5052925;28;20029;-66
2022/05/09 11:47:51;;;;;;;0.98;0.60;;;25.20;87.30;;;;;;5053341;28;20029;-66
2022/05/09 11:50:45;;;;;;;0.47;0.47;;;26.00;88.20;;;;;;5052023;28;20052;-66
2022/05/09 11:53:15;;;;;;;0.13;0.10;;;25.90;87.70;;;;;;5053039;28;20029;-66
2022/05/09 11:55:43;;;;;;;0.30;0.20;;;25.80;88.80;;;;;;5051903;28;20025;-66
2022/05/09 11:58:10;;;;;;;0.10;0.10;;;26.40;89.40;;;;;;5052552;28;20619;-66
2022/05/09 12:00:39;;;;;;;0.20;0.20;;;26.70;85.00;;;;;;5050928;28;20047;-67
2022/05/09 12:03:13;;;;;;;1.38;0.73;;;26.10;88.20;;;;;;5052887;28;20143;-67
2022/05/09 12:05:39;;;;;;;0.25;0.15;;;26.10;85.50;;;;;;5051276;28;20492;-67
2022/05/09 12:08:08;;;;;;;0.63;0.57;;;26.70;85.30;;;;;;5051791;28;20044;-67
2022/05/09 12:10:38;;;;;;;0.17;0.00;;;27.00;82.80;;;;;;5035135;28;20127;-67
2022/05/09 12:13:11;;;;;;;1.00;0.77;;;27.00;83.60;;;;;;5035015;28;20059;-66
2022/05/09 12:15:36;;;;;;;0.45;0.45;;;26.80;82.90;;;;;;5051573;28;20052;-67
2022/05/09 12:18:09;;;;;;;0.30;0.30;;;27.10;82.40;;;;;;5052322;28;20489;-67
2022/05/09 12:20:37;;;;;;;0.95;0.85;;;26.70;81.20;;;;;;5047553;28;20392;-67
2022/05/09 12:23:05;;;;;;;0.25;0.25;;;26.90;80.90;;;;;;5050788;28;20056;-66
2022/05/09 12:25:41;;;;;;;0.50;0.45;;;26.20;82.10;;;;;;5052385;28;20029;-66
2022/05/09 12:28:36;;;;;;;0.08;0.08;;;26.10;82.90;;;;;;5052218;28;20028;-66
2022/05/09 12:31:38;;;;;;;0.30;0.30;;;25.60;83.40;;;;;;5052703;28;20085;-66
2022/05/09 12:34:04;;;;;;;0.10;0.10;;;25.90;83.20;;;;;;5052229;28;20040;-66
2022/05/09 12:36:34;;;;;;;0.32;0.32;;;25.80;85.80;;;;;;5047799;28;20094;-66
2022/05/09 12:39:16;;;;;;;3.22;0.88;;;26.40;84.80;;;;;;5050289;28;20123;-67
2022/05/09 12:41:53;;;;;;;0.32;0.25;;;26.60;84.00;;;;;;5052116;28;20087;-66
2022/05/09 12:44:20;;;;;;;0.22;0.20;;;26.50;82.20;;;;;;5050816;28;20055;-66
2022/05/09 12:46:53;;;;;;;0.40;0.30;;;26.20;84.50;;;;;;5052158;28;20037;-66
2022/05/09 12:49:26;;;;;;;3.60;0.57;;;25.50;83.40;;;;;;5050522;28;20037;-66
2022/05/09 12:51:56;;;;;;;0.57;0.20;;;26.10;82.20;;;;;;5049375;28;20121;-68
2022/05/09 12:54:25;;;;;;;;;;;26.30;79.50;;;;;;5051158;28;20040;-66
2022/05/09 12:56:58;;;;;;;0.30;0.30;;;25.70;80.10;;;;;;5050785;28;20365;-66
2022/05/09 12:59:28;;;;;;;1.10;0.68;;;25.80;79.70;;;;;;5034274;28;20048;-65
2022/05/09 13:02:00;;;;;;;1.33;0.90;;;25.10;83.70;;;;;;5050446;28;20033;-65
2022/05/09 13:04:35;;;;;;;1.40;0.30;;;25.50;82.40;;;;;;5051393;28;20017;-65
2022/05/09 13:07:04;;;;;;;3.83;0.52;;;25.40;81.30;;;;;;5051209;28;20079;-65
2022/05/09 13:09:53;;;;;;;0.73;0.20;;;25.10;81.60;;;;;;5033480;28;20044;-66
2022/05/09 13:12:27;;;;;;;0.98;0.90;;;25.30;80.70;;;;;;5036334;28;20102;-65
2022/05/09 13:14:58;;;;;;;0.80;0.80;;;25.50;81.00;;;;;;5050050;28;20029;-66
2022/05/09 13:17:35;;;;;;;0.40;0.40;;;26.40;80.40;;;;;;5051467;28;20029;-65
2022/05/09 13:20:03;;;;;;;0.35;0.28;;;26.80;77.20;;;;;;5049908;28;20485;-66
2022/05/09 13:22:30;;;;;;;0.20;0.20;;;26.30;78.30;;;;;;5050139;28;20163;-65
2022/05/09 13:24:59;;;;;;;0.57;0.40;;;26.50;77.40;;;;;;5033392;28;20056;-65
2022/05/09 13:27:25;;;;;;;0.22;0.22;;;26.30;78.30;;;;;;5050295;28;20033;-67
2022/05/09 13:29:53;;;;;;;0.40;0.40;;;26.40;76.10;;;;;;5049344;28;20518;-66